Ana Sayfa
METAR-TAF:

METAR-TAF

Havaalanları :

Fort Smith, Arkansas, Amerika Birleşik Devletleri

Enlem: 35-20-01N, Boylam: 094-21-54W, yükseklik: 142 m

Güncel hava durumu gözlemi

Rapor saat 17:53 UTC de 30 dakika önce yapıldı.
Rüzgar batı/güneybatıdan 3 kt
Sıcaklık 29°C
Nem 55%
Basınç 1016 hPa
Görüş mesafesi: 16.1 km
4500 ft yükseklikte parçalı bulutlu

METAR: KFSM 121753Z 24003KT 10SM SCT045 29/19 A3001 RMK AO2 SLP158 T02940189 10306 20206 58008

Saat: 13:23 (18:23 UTC)

Tahmin

Rapor saat 17:23 UTC de 1 saat ve 0 dakika önce yapıldı.
Ayın 12'si saat 18 UTC'den ayın 13'si saat 18 UTC'ye kadar geçerli Tahmin
Rüzgar değişken yönden 4 kt
Görüş mesafesi: 10 km
4000 ft yükseklikte parçalı bulutlu
Ayın 13'si saat 0000 UTC'den
Rüzgar değişken yönden 3 kt
Görüş mesafesi: 10 km
Açık gökyüzü

TAF: KFSM 121723Z 1218/1318 VRB04KT P6SM SCT040 FM130000 VRB03KT P6SM SKC

4.000'den fazla havaalanı için hava durumu gözlemleri ve tahminleri (METAR ve TAF raporları).

Kullanılabilir istasyonlar harita üzerinde sarı ve kırmızı noktalarla gösterilir.

İstasyonun adını görmek için fareyi noktanın üzerinde gezdirin.

Sonrasında hava gözlem ve tahminlerini görmek için tıklayın.

Haritayı değiştirmek için: yaklaştırmak için siyah artı işaretli yeşil düğmeye ve uzaklaştırmak için de eksi işaretli düğmeye hızla tıklayın; bitişik haritalar için yeşil okları kullanın.


METAR-TAF: